Time;durP1;ratioP1;P1;durP2;ratioP2;P2;SDS_P1;SDS_P2;PMS_P1;PMS_P2;Temp;Humidity;BMP_temperature;BMP_pressure;BME280_temperature;BME280_humidity;BME280_pressure;Samples;Min_cycle;Max_cycle;Signal;HPM_P1;HPM_P2
2022/05/04 00:01:20;;;;;;;9.82;5.38;;;;;;;8.89;73.87;101860.16;5118789;28;20032;-67
2022/05/04 00:03:46;;;;;;;10.02;5.68;;;;;;;8.83;73.67;101865.34;5118480;28;20472;-66
2022/05/04 00:06:11;;;;;;;13.10;5.32;;;;;;;8.72;74.42;101849.53;5118684;28;20043;-66
2022/05/04 00:08:39;;;;;;;12.75;5.60;;;;;;;8.68;74.20;101855.59;5118363;28;20027;-66
2022/05/04 00:11:06;;;;;;;14.45;5.78;;;;;;;8.62;74.32;101853.81;5116711;28;20041;-66
2022/05/04 00:13:32;;;;;;;12.35;5.65;;;;;;;8.70;74.38;101861.69;5118591;28;20090;-66
2022/05/04 00:16:01;;;;;;;13.05;5.47;;;;;;;8.66;74.30;101862.53;5118143;28;20070;-65
2022/05/04 00:18:30;;;;;;;13.43;5.93;;;;;;;8.72;74.15;101863.47;5118426;28;20115;-65
2022/05/04 00:20:55;;;;;;;10.90;5.40;;;;;;;8.56;74.55;101858.06;5117999;28;20031;-66
2022/05/04 00:23:21;;;;;;;13.88;5.40;;;;;;;8.54;74.83;101867.59;5117791;28;20458;-66
2022/05/04 00:25:46;;;;;;;11.75;5.70;;;;;;;8.56;75.01;101866.78;5117998;28;20044;-65
2022/05/04 00:28:11;;;;;;;12.82;5.90;;;;;;;8.57;74.77;101865.03;5117798;28;20074;-66
2022/05/04 00:30:37;;;;;;;12.82;5.95;;;;;;;8.56;75.13;101863.28;5117799;28;20032;-65
2022/05/04 00:33:02;;;;;;;13.18;5.68;;;;;;;8.62;75.59;101858.16;5117849;28;20453;-66
2022/05/04 00:35:27;;;;;;;12.90;5.90;;;;;;;8.75;74.77;101861.75;5117762;28;20110;-65
2022/05/04 00:37:52;;;;;;;12.85;5.82;;;;;;;8.69;75.16;101863.44;5117846;28;20472;-66
2022/05/04 00:40:18;;;;;;;13.82;6.30;;;;;;;8.70;75.19;101859.09;5117903;28;20110;-66
2022/05/04 00:42:43;;;;;;;12.70;6.20;;;;;;;8.79;75.07;101861.81;5117466;28;20028;-65
2022/05/04 00:45:09;;;;;;;13.68;6.18;;;;;;;8.84;74.74;101859.22;5117735;28;20077;-65
2022/05/04 00:47:34;;;;;;;15.55;6.47;;;;;;;8.78;74.74;101856.56;5114477;28;20044;-64
2022/05/04 00:50:04;;;;;;;11.30;6.10;;;;;;;8.71;74.82;101851.28;5117533;28;20024;-66
2022/05/04 00:52:30;;;;;;;15.38;6.63;;;;;;;8.80;75.12;101860.06;5117475;28;20043;-65
2022/05/04 00:54:55;;;;;;;13.10;5.90;;;;;;;8.83;75.08;101860.13;5117761;28;20027;-67
2022/05/04 01:00:07;;;;;;;18.83;7.05;;;;;;;8.89;74.62;101857.53;5117462;28;20112;-65
2022/05/04 01:02:32;;;;;;;13.55;7.18;;;;;;;8.83;75.09;101849.69;5117366;28;20092;-66
2022/05/04 01:04:57;;;;;;;15.27;6.50;;;;;;;8.84;75.36;101841.81;5117260;28;20451;-65
2022/05/04 01:07:23;;;;;;;11.38;6.65;;;;;;;8.88;75.47;101853.19;5117068;28;20051;-66
2022/05/04 01:09:49;;;;;;;14.30;6.93;;;;;;;8.88;75.59;101856.66;5117219;28;20423;-65
2022/05/04 01:12:14;;;;;;;14.05;7.18;;;;;;;8.89;75.48;101839.28;5117231;28;20410;-65
2022/05/04 01:14:39;;;;;;;12.25;7.03;;;;;;;8.99;75.78;101848.97;5117248;28;20334;-65
2022/05/04 01:17:05;;;;;;;14.40;7.18;;;;;;;9.02;75.37;101849.84;5117045;28;20027;-65
2022/05/04 01:19:30;;;;;;;14.57;7.20;;;;;;;9.02;75.17;101846.34;5116823;28;20442;-66
2022/05/04 01:21:55;;;;;;;17.60;7.40;;;;;;;9.08;75.56;101844.69;5116173;28;20119;-65
2022/05/04 01:24:21;;;;;;;10.40;7.20;;;;;;;9.06;75.96;101848.13;5116480;28;20043;-65
2022/05/04 01:26:46;;;;;;;13.65;7.40;;;;;;;9.10;75.96;101849.03;5116424;28;20404;-65
2022/05/04 01:29:12;;;;;;;16.00;7.35;;;;;;;9.08;75.57;101847.28;5116778;28;20478;-66
2022/05/04 01:31:37;;;;;;;11.90;7.18;;;;;;;9.06;75.76;101848.13;5116926;28;20046;-65
2022/05/04 01:34:03;;;;;;;16.70;7.40;;;;;;;9.03;75.60;101846.38;5116766;28;20096;-65
2022/05/04 01:36:28;;;;;;;15.18;7.18;;;;;;;9.04;75.77;101836.78;5116224;28;20346;-66
2022/05/04 01:38:53;;;;;;;14.20;6.95;;;;;;;9.13;75.68;101855.16;5116547;28;20074;-65
2022/05/04 01:44:03;;;;;;;16.05;7.30;;;;;;;9.02;75.91;101842.00;5116408;28;20093;-65
2022/05/04 01:46:28;;;;;;;15.43;7.55;;;;;;;9.02;75.81;101842.00;5116425;28;20365;-65
2022/05/04 01:48:53;;;;;;;14.35;7.03;;;;;;;9.02;75.85;101848.97;5115911;28;20035;-65
2022/05/04 01:51:19;;;;;;;13.85;6.82;;;;;;;9.06;75.47;101849.00;5115810;28;20104;-64
2022/05/04 01:53:45;;;;;;;15.88;6.85;;;;;;;9.21;75.53;101844.78;5116021;28;20051;-66
2022/05/04 01:56:11;;;;;;;12.40;6.90;;;;;;;9.19;75.64;101842.16;5115783;28;20031;-66
2022/05/04 01:58:36;;;;;;;17.20;6.57;;;;;;;9.15;75.09;101839.53;5116157;28;20110;-65
2022/05/04 02:01:02;;;;;;;17.52;6.35;;;;;;;9.24;74.97;101836.97;5115948;28;20048;-65
2022/05/04 02:03:27;;;;;;;15.15;6.38;;;;;;;9.19;74.86;101842.16;5116146;28;20427;-65
2022/05/04 02:05:54;;;;;;;14.98;6.63;;;;;;;9.21;75.42;101842.16;5115756;28;20069;-65
2022/05/04 02:08:20;;;;;;;12.70;6.75;;;;;;;9.27;75.26;101835.25;5116157;28;20020;-65
2022/05/04 02:10:45;;;;;;;12.73;6.50;;;;;;;9.28;74.58;101841.38;5116219;28;20023;-66
2022/05/04 02:13:10;;;;;;;18.50;6.38;;;;;;;9.30;74.67;101839.63;5115807;28;20036;-65
2022/05/04 02:15:36;;;;;;;13.43;6.40;;;;;;;9.27;74.34;101830.03;5115988;28;20032;-64
2022/05/04 02:18:01;;;;;;;11.35;6.15;;;;;;;9.31;74.46;101837.03;5115910;28;20110;-65
2022/05/04 02:20:26;;;;;;;11.65;6.35;;;;;;;9.29;74.28;101830.06;5116257;28;20364;-64
2022/05/04 02:22:52;;;;;;;10.07;5.80;;;;;;;9.30;74.18;101834.41;5115574;28;20028;-64
2022/05/04 02:25:17;;;;;;;15.52;6.40;;;;;;;9.27;74.24;101829.16;5115566;28;20028;-65
2022/05/04 02:27:42;;;;;;;11.95;6.25;;;;;;;9.32;74.56;101832.69;5115441;28;20052;-64
2022/05/04 02:30:08;;;;;;;12.40;5.82;;;;;;;9.31;73.99;101828.34;5115551;28;20115;-65
2022/05/04 02:32:34;;;;;;;13.70;5.63;;;;;;;9.32;73.97;101824.84;5115606;28;20109;-65
2022/05/04 02:37:54;;;;;;;14.07;5.82;;;;;;;9.20;74.01;101825.63;5115144;28;20083;-65
2022/05/04 02:40:20;;;;;;;17.48;6.22;;;;;;;9.24;73.86;101831.75;5115464;28;20056;-65
2022/05/04 02:42:46;;;;;;;15.02;5.45;;;;;;;9.24;73.74;101831.75;5115396;28;20114;-65
2022/05/04 02:45:11;;;;;;;11.82;5.88;;;;;;;9.13;73.62;101826.44;5115475;28;20118;-65
2022/05/04 02:47:38;;;;;;;13.95;6.15;;;;;;;9.10;73.86;101822.94;5115713;28;20427;-64
2022/05/04 02:50:04;;;;;;;16.90;6.45;;;;;;;9.03;73.74;101814.16;5115073;28;20067;-65
2022/05/04 02:52:30;;;;;;;11.40;5.68;;;;;;;9.01;74.00;101824.59;5115493;28;20085;-65
2022/05/04 02:54:55;;;;;;;12.20;5.82;;;;;;;8.96;74.23;101830.66;5115145;28;20114;-65
2022/05/04 02:57:20;;;;;;;12.02;5.68;;;;;;;8.98;74.46;101823.72;5115488;28;20054;-65
2022/05/04 02:59:45;;;;;;;13.27;5.72;;;;;;;8.92;74.26;101824.53;5115237;28;20023;-66
2022/05/04 03:02:29;;;;;;;14.38;6.00;;;;;;;8.86;74.46;101821.84;5115149;28;20042;-65
2022/05/04 03:05:00;;;;;;;11.95;5.93;;;;;;;8.84;74.40;101815.72;5115255;28;20110;-65
2022/05/04 03:07:26;;;;;;;14.25;6.05;;;;;;;8.76;74.60;101812.19;5115382;28;20020;-65
2022/05/04 03:09:52;;;;;;;15.05;6.00;;;;;;;8.73;74.46;101815.63;5114980;28;20415;-65
2022/05/04 03:12:18;;;;;;;17.00;6.35;;;;;;;8.66;74.43;101820.78;5115002;28;20365;-65
2022/05/04 03:14:44;;;;;;;12.68;5.80;;;;;;;8.66;74.88;101815.56;5115010;28;20126;-66
2022/05/04 03:17:09;;;;;;;14.73;6.25;;;;;;;8.73;75.14;101817.38;5114922;28;20024;-65
2022/05/04 03:19:35;;;;;;;18.77;6.30;;;;;;;8.70;74.74;101809.50;5114805;28;20032;-65
2022/05/04 03:22:00;;;;;;;15.02;6.05;;;;;;;8.68;74.83;101804.28;5114986;28;20046;-65
2022/05/04 03:24:26;;;;;;;13.45;6.00;;;;;;;8.65;74.94;101814.72;5115225;28;20032;-65
2022/05/04 03:26:51;;;;;;;11.10;6.57;;;;;;;8.71;75.15;101801.69;5114693;28;20051;-66
2022/05/04 03:29:16;;;;;;;18.70;5.90;;;;;;;8.68;74.74;101813.84;5114754;28;20038;-65
2022/05/04 03:31:42;;;;;;;12.73;6.22;;;;;;;8.62;74.82;101813.78;5115353;28;20027;-65
2022/05/04 03:34:07;;;;;;;16.55;6.32;;;;;;;8.57;75.11;101808.53;5114653;28;20054;-64
2022/05/04 03:36:35;;;;;;;13.15;5.80;;;;;;;8.61;74.91;101804.22;5114419;28;20036;-65
2022/05/04 03:39:01;;;;;;;15.80;6.10;;;;;;;8.48;75.46;101811.06;5115095;28;20045;-65
2022/05/04 03:41:27;;;;;;;14.25;5.75;;;;;;;8.46;75.77;101806.66;5115066;28;20316;-65
2022/05/04 03:43:52;;;;;;;15.57;6.32;;;;;;;8.37;75.84;101800.47;5114827;28;20031;-65
2022/05/04 03:46:20;;;;;;;17.88;6.55;;;;;;;8.38;75.88;101804.84;5117320;28;20038;-65
2022/05/04 03:48:47;;;;;;;15.77;6.55;;;;;;;8.41;75.85;101808.34;5118133;28;20455;-65
2022/05/04 03:51:22;;;;;;;12.38;6.45;;;;;;;8.42;76.04;101804.88;5118453;28;20027;-65
2022/05/04 03:53:48;;;;;;;17.95;6.45;;;;;;;8.43;76.26;101811.84;5118797;28;20028;-65
2022/05/04 03:56:14;;;;;;;13.95;5.88;;;;;;;8.44;76.49;101811.88;5118432;28;20056;-64
2022/05/04 03:58:40;;;;;;;14.10;6.18;;;;;;;8.49;75.74;101812.78;5118101;28;20066;-65
2022/05/04 04:01:05;;;;;;;16.63;6.72;;;;;;;8.46;75.55;101811.88;5118538;28;20413;-65
2022/05/04 04:03:31;;;;;;;16.05;7.15;;;;;;;8.43;76.33;101809.25;5118428;28;20067;-65
2022/05/04 04:05:57;;;;;;;16.73;6.72;;;;;;;8.36;76.27;101809.16;5118424;28;20446;-66
2022/05/04 04:08:22;;;;;;;14.48;6.95;;;;;;;8.35;76.19;101817.84;5117945;28;20115;-65
2022/05/04 04:10:49;;;;;;;16.50;6.45;;;;;;;8.30;76.70;101816.03;5118081;28;20055;-65
2022/05/04 04:13:15;;;;;;;17.77;6.82;;;;;;;8.30;76.48;101814.28;5100616;28;20370;-65
2022/05/04 04:15:41;;;;;;;16.67;6.90;;;;;;;8.31;76.78;101809.97;5118050;28;20077;-65
2022/05/04 04:18:06;;;;;;;14.90;6.95;;;;;;;8.17;76.81;101804.56;5117909;28;20443;-65
2022/05/04 04:23:15;;;;;;;14.20;6.25;;;;;;;8.11;77.02;101806.25;5118245;28;20066;-65
2022/05/04 04:25:41;;;;;;;13.48;6.78;;;;;;;8.03;77.27;101808.72;5117843;28;20442;-65
2022/05/04 04:28:06;;;;;;;19.20;6.63;;;;;;;7.96;77.58;101810.41;5117599;28;20043;-65
2022/05/04 04:30:32;;;;;;;15.70;6.93;;;;;;;7.96;78.04;101815.63;5117914;28;20039;-65
2022/05/04 04:32:57;;;;;;;16.48;7.25;;;;;;;7.95;78.23;101811.25;5117846;28;20172;-65
2022/05/04 04:35:22;;;;;;;19.63;7.40;;;;;;;7.90;78.21;101793.81;5117737;28;20042;-65
2022/05/04 04:37:47;;;;;;;17.55;6.88;;;;;;;8.01;77.84;101821.75;5117806;28;20097;-64
2022/05/04 04:40:13;;;;;;;12.88;6.63;;;;;;;7.98;78.02;101815.63;5117648;28;20453;-65
2022/05/04 04:42:38;;;;;;;12.88;6.82;;;;;;;7.89;78.30;101813.78;5117809;28;20046;-65
2022/05/04 04:45:04;;;;;;;15.85;7.20;;;;;;;7.86;78.57;101826.75;5117448;28;20082;-65
2022/05/04 04:47:30;;;;;;;17.63;6.93;;;;;;;7.86;78.61;101823.28;5117584;28;20316;-65
2022/05/04 04:49:56;;;;;;;17.67;7.35;;;;;;;7.85;78.52;101822.41;5117359;28;20038;-65
2022/05/04 04:52:22;;;;;;;13.40;6.95;;;;;;;7.90;78.67;101814.66;5117511;28;20059;-65
2022/05/04 04:54:47;;;;;;;17.02;7.55;;;;;;;7.95;78.35;101820.81;5117233;28;20066;-65
2022/05/04 04:57:12;;;;;;;15.05;7.32;;;;;;;8.00;78.26;101814.78;5116698;28;20024;-65
2022/05/04 04:59:37;;;;;;;19.90;7.00;;;;;;;8.01;78.24;101820.88;5117280;28;20620;-65
2022/05/04 05:02:03;;;;;;;16.58;7.40;;;;;;;8.04;78.47;101811.38;5117239;28;20049;-65
2022/05/04 05:04:28;;;;;;;18.58;8.02;;;;;;;8.04;77.61;101819.19;5117330;28;20420;-65
2022/05/04 05:06:54;;;;;;;17.80;7.28;;;;;;;7.99;77.88;101818.25;5117463;28;20058;-65
2022/05/04 05:09:19;;;;;;;14.23;7.00;;;;;;;7.96;78.39;101815.63;5116960;28;20032;-64
2022/05/04 05:11:44;;;;;;;21.25;7.20;;;;;;;7.92;78.07;101813.81;5116980;28;20419;-65
2022/05/04 05:16:53;;;;;;;17.63;6.60;;;;;;;7.90;77.91;101820.75;5116904;28;20046;-65
2022/05/04 05:19:19;;;;;;;17.27;6.65;;;;;;;7.88;78.04;101826.78;5116948;28;20024;-64
2022/05/04 05:21:44;;;;;;;14.88;6.90;;;;;;;7.91;78.36;101816.41;5116758;28;20027;-65
2022/05/04 05:24:09;;;;;;;20.02;7.07;;;;;;;8.01;77.74;101828.69;5116865;28;20028;-64
2022/05/04 05:26:35;;;;;;;14.98;6.90;;;;;;;8.06;77.57;101829.63;5116346;28;20039;-65
2022/05/04 05:29:00;;;;;;;16.42;6.75;;;;;;;8.00;77.06;101819.13;5116685;28;20031;-64
2022/05/04 05:31:26;;;;;;;13.30;6.90;;;;;;;8.10;77.03;101836.66;5116626;28;20046;-64
2022/05/04 05:33:51;;;;;;;16.40;6.80;;;;;;;8.09;77.25;101828.81;5116680;28;20044;-64
2022/05/04 05:36:16;;;;;;;19.13;7.07;;;;;;;8.09;76.51;101826.19;5116382;28;20076;-65
2022/05/04 05:38:41;;;;;;;16.90;7.45;;;;;;;8.04;77.07;101824.41;5116624;28;20042;-64
2022/05/04 05:41:07;;;;;;;17.73;6.72;;;;;;;8.08;77.13;101824.44;5116356;28;20110;-64
2022/05/04 05:43:32;;;;;;;15.90;7.22;;;;;;;8.19;77.08;101833.25;5116358;28;20031;-64
2022/05/04 05:45:57;;;;;;;18.95;6.70;;;;;;;8.24;76.46;101828.97;5116433;28;20069;-64
2022/05/04 05:48:23;;;;;;;18.63;6.43;;;;;;;8.25;76.56;101833.34;5116106;28;20036;-65
2022/05/04 05:50:48;;;;;;;25.92;7.80;;;;;;;8.23;76.35;101827.22;5115762;28;20023;-65
2022/05/04 05:53:17;;;;;;;16.38;7.07;;;;;;;8.26;76.88;101832.50;5116073;28;20444;-65
2022/05/04 05:55:42;;;;;;;14.70;7.03;;;;;;;8.35;77.30;101828.28;5116038;28;20070;-64
2022/05/04 05:58:09;;;;;;;18.63;6.82;;;;;;;8.46;75.77;101835.38;5116088;28;20055;-64
2022/05/04 06:00:35;;;;;;;18.95;7.13;;;;;;;8.48;76.18;101831.91;5116188;28;20045;-64
2022/05/04 06:03:00;;;;;;;16.23;7.40;;;;;;;8.46;75.52;101817.09;5115964;28;20119;-66
2022/05/04 06:05:25;;;;;;;15.88;6.93;;;;;;;8.57;75.57;101831.13;5116168;28;20069;-66
2022/05/04 06:07:50;;;;;;;14.55;6.80;;;;;;;8.64;75.45;101840.78;5115981;28;20039;-65
2022/05/04 06:10:16;;;;;;;21.73;7.40;;;;;;;8.68;74.77;101824.28;5115933;28;20499;-66
2022/05/04 06:12:41;;;;;;;21.75;7.25;;;;;;;8.66;74.66;101832.09;5115857;28;20031;-66
2022/05/04 06:15:08;;;;;;;15.95;7.38;;;;;;;8.71;75.63;101840.84;5115746;28;20307;-66
2022/05/04 06:17:33;;;;;;;14.82;7.47;;;;;;;8.80;74.11;101841.81;5116241;28;20030;-66
2022/05/04 06:19:59;;;;;;;17.27;7.47;;;;;;;8.81;74.27;101843.56;5115776;28;20122;-66
2022/05/04 06:22:24;;;;;;;15.98;6.75;;;;;;;8.90;73.80;101848.84;5115783;28;20070;-67
2022/05/04 06:24:49;;;;;;;22.15;7.35;;;;;;;8.83;73.85;101828.78;5115489;28;20024;-66
2022/05/04 06:27:14;;;;;;;16.90;7.35;;;;;;;8.95;73.05;101840.22;5115969;28;20384;-69
2022/05/04 06:35:12;;;;;;;16.58;7.03;;;;;;;9.14;72.08;101830.81;5116161;27;20072;-69
2022/05/04 06:37:38;;;;;;;17.02;7.25;;;;;;;9.36;72.25;101842.28;5115837;27;20493;-69
2022/05/04 06:40:04;;;;;;;23.42;6.80;;;;;;;9.48;71.11;101837.16;5126630;27;20028;-69
2022/05/04 06:42:29;;;;;;;16.70;6.45;;;;;;;9.62;69.94;101842.47;5122805;27;20042;-69
2022/05/04 06:44:54;;;;;;;14.57;5.85;;;;;;;9.78;69.14;101853.03;5128938;27;20062;-69
2022/05/04 06:47:20;;;;;;;15.77;6.05;;;;;;;9.89;68.07;101849.59;5104245;28;20042;-70
2022/05/04 06:49:45;;;;;;;16.38;5.82;;;;;;;10.05;67.40;101854.91;5125837;27;20102;-63
2022/05/04 06:52:10;;;;;;;15.30;6.60;;;;;;;10.25;67.26;101852.41;5131842;28;20031;-64
2022/05/04 06:54:37;;;;;;;16.42;5.68;;;;;;;10.49;66.63;101856.00;5135786;28;20039;-63
2022/05/04 06:57:02;;;;;;;10.88;6.10;;;;;;;10.64;65.58;101848.19;5120636;28;20024;-63
2022/05/04 06:59:28;;;;;;;14.10;5.75;;;;;;;10.79;65.63;101845.59;5129533;28;20028;-64
2022/05/04 07:01:54;;;;;;;16.45;6.35;;;;;;;10.93;64.20;101849.09;5105827;28;20043;-63
2022/05/04 07:04:20;;;;;;;15.80;6.15;;;;;;;10.81;64.08;101847.34;5094723;28;20162;-59
2022/05/04 07:06:45;;;;;;;17.60;6.00;;;;;;;10.64;64.03;101838.59;5094919;28;20077;-68
2022/05/04 07:09:11;;;;;;;15.27;6.22;;;;;;;10.56;64.62;101840.34;5077176;28;20418;-69
2022/05/04 07:11:36;;;;;;;12.48;5.65;;;;;;;10.52;64.67;101843.81;5094747;28;20032;-69
2022/05/04 07:14:01;;;;;;;18.45;6.60;;;;;;;10.38;64.84;101840.28;5094933;28;20119;-68
2022/05/04 07:16:27;;;;;;;16.33;6.00;;;;;;;10.24;65.31;101840.22;5094797;28;20028;-67
2022/05/04 07:18:52;;;;;;;14.98;6.50;;;;;;;10.17;66.40;101853.25;5094931;28;20034;-66
2022/05/04 07:21:17;;;;;;;18.08;6.20;;;;;;;10.15;65.88;101842.78;5097702;28;20077;-67
2022/05/04 07:23:42;;;;;;;17.60;6.30;;;;;;;10.05;66.17;101831.38;5099014;28;20031;-68
2022/05/04 07:26:08;;;;;;;14.15;5.88;;;;;;;10.07;66.02;101834.00;5101099;27;20039;-67
2022/05/04 07:28:33;;;;;;;14.60;5.93;;;;;;;10.04;66.51;101829.63;5112210;27;20085;-66
2022/05/04 07:30:58;;;;;;;15.00;6.50;;;;;;;10.23;65.21;101840.19;5098680;28;20414;-67
2022/05/04 07:33:24;;;;;;;16.63;6.72;;;;;;;10.44;65.76;101837.66;5124671;27;20057;-67
2022/05/04 07:35:49;;;;;;;16.17;6.15;;;;;;;10.57;65.07;101838.56;5139061;27;20046;-67
2022/05/04 07:38:14;;;;;;;19.00;6.47;;;;;;;10.61;64.42;101817.66;5139508;27;20059;-68
2022/05/04 07:43:23;;;;;;;19.73;6.90;;;;;;;10.71;64.74;101831.63;5139540;27;20407;-68
2022/05/04 07:45:48;;;;;;;11.10;6.55;;;;;;;10.74;64.19;101834.25;5139377;27;20031;-67
2022/05/04 07:48:14;;;;;;;11.30;6.57;;;;;;;10.70;64.79;101842.97;5139973;27;20034;-67
2022/05/04 07:50:40;;;;;;;16.60;7.13;;;;;;;10.60;64.52;101821.13;5139279;27;20058;-67
2022/05/04 07:53:05;;;;;;;13.45;6.43;;;;;;;10.68;63.86;101844.72;5139168;27;20031;-68
2022/05/04 07:55:31;;;;;;;13.60;6.95;;;;;;;10.63;64.19;101844.69;5119032;27;20228;-67
2022/05/04 07:57:57;;;;;;;17.58;6.97;;;;;;;10.64;64.75;101841.22;5111867;28;20100;-67
2022/05/04 08:05:51;;;;;;;16.17;7.18;;;;;;;10.88;64.23;101842.13;5118229;28;20074;-67
2022/05/04 08:08:16;;;;;;;16.98;7.28;;;;;;;10.96;63.00;101845.63;5117105;28;20035;-69
2022/05/04 08:10:41;;;;;;;14.25;7.57;;;;;;;11.01;63.50;101843.91;5116549;28;20028;-66
2022/05/04 08:13:07;;;;;;;14.07;7.68;;;;;;;11.03;62.99;101836.91;5115378;28;20028;-65
2022/05/04 08:15:32;;;;;;;17.35;8.05;;;;;;;11.12;63.09;101843.00;5115974;28;20050;-67
2022/05/04 08:17:58;;;;;;;16.77;8.43;;;;;;;11.13;62.69;101838.66;5113067;28;20043;-66
2022/05/04 08:20:25;;;;;;;16.48;7.82;;;;;;;11.14;62.99;101837.78;5119078;27;20524;-63
2022/05/04 08:22:51;;;;;;;15.10;7.78;;;;;;;11.18;62.57;101839.53;5122287;27;20043;-68
2022/05/04 08:25:17;;;;;;;18.05;8.32;;;;;;;11.20;62.36;101839.53;5115876;28;20027;-68
2022/05/04 08:27:43;;;;;;;14.43;7.90;;;;;;;11.27;61.79;101842.13;5108032;27;20047;-68
2022/05/04 08:30:09;;;;;;;15.50;7.60;;;;;;;11.30;61.94;101847.38;5115684;28;20027;-66
2022/05/04 08:32:34;;;;;;;12.23;7.68;;;;;;;11.32;61.75;101845.63;5115373;28;20038;-67
2022/05/04 08:35:00;;;;;;;15.60;7.82;;;;;;;11.37;61.65;101846.53;5116213;28;20457;-69
2022/05/04 08:37:29;;;;;;;15.82;8.02;;;;;;;11.36;61.45;101839.53;5116188;28;20031;-67
2022/05/04 08:39:56;;;;;;;15.88;8.25;;;;;;;11.51;61.49;101851.75;5132895;27;20041;-69
2022/05/04 08:42:22;;;;;;;17.35;7.65;;;;;;;11.58;60.84;101844.75;5136602;27;20572;-67
2022/05/04 08:44:51;;;;;;;12.90;7.25;;;;;;;11.70;61.01;101847.34;5136526;27;20031;-66
2022/05/04 08:47:21;;;;;;;15.00;7.80;;;;;;;11.74;60.52;101846.47;5136498;27;20346;-68
2022/05/04 08:49:47;;;;;;;16.08;8.02;;;;;;;11.82;60.99;101836.84;5136275;27;20027;-69
2022/05/04 08:52:13;;;;;;;14.65;7.93;;;;;;;11.97;60.22;101847.28;5136478;27;20035;-66
2022/05/04 08:54:40;;;;;;;16.08;8.02;;;;;;;12.04;60.15;101835.91;5136437;27;20110;-68
2022/05/04 08:57:05;;;;;;;16.88;8.00;;;;;;;12.18;59.10;101836.72;5136207;27;20046;-66
2022/05/04 08:59:30;;;;;;;15.60;7.65;;;;;;;13.05;56.50;101827.47;5136075;27;20103;-66
2022/05/04 09:01:56;;;;;;;16.30;7.57;;;;;;;14.77;52.30;101831.69;5136496;27;20027;-68
2022/05/04 09:04:21;;;;;;;14.63;7.22;;;;;;;15.97;48.76;101823.47;5137758;27;20422;-67
2022/05/04 09:06:48;;;;;;;15.35;7.20;;;;;;;16.85;46.32;101818.03;5137910;27;20374;-67
2022/05/04 09:09:14;;;;;;;13.50;8.05;;;;;;;17.70;43.54;101824.69;5137847;27;20027;-68
2022/05/04 09:11:41;;;;;;;17.55;7.35;;;;;;;17.45;43.98;101823.59;5137718;27;20038;-67
2022/05/04 09:14:08;;;;;;;14.10;7.97;;;;;;;17.43;44.02;101824.53;5137572;27;20438;-66
2022/05/04 09:16:34;;;;;;;13.82;7.78;;;;;;;16.68;45.01;101808.72;5137379;27;20027;-65
2022/05/04 09:19:01;;;;;;;11.57;7.22;;;;;;;15.87;46.63;101806.94;5137616;27;20048;-66
2022/05/04 09:21:27;;;;;;;13.35;8.00;;;;;;;15.38;48.10;101822.81;5137404;27;20061;-67
2022/05/04 09:23:53;;;;;;;12.20;7.20;;;;;;;15.19;50.43;101821.38;5137156;27;20385;-65
2022/05/04 09:26:20;;;;;;;14.05;8.05;;;;;;;15.07;50.00;101818.91;5136909;27;20051;-69
2022/05/04 09:28:52;;;;;;;15.85;7.70;;;;;;;14.81;48.57;101825.50;5137351;27;20110;-68
2022/05/04 09:31:20;;;;;;;15.23;8.18;;;;;;;14.65;49.04;101816.06;5137558;27;20115;-68
2022/05/04 09:33:52;;;;;;;15.40;7.60;;;;;;;14.54;50.50;101816.25;5137274;27;20358;-69
2022/05/04 09:36:32;;;;;;;13.90;7.45;;;;;;;14.63;51.46;101815.22;5136912;27;20477;-69
2022/05/04 09:47:20;;;;;;;17.30;8.02;;;;;;;15.01;50.44;101805.84;5136784;27;20411;-66
2022/05/04 09:49:50;;;;;;;15.32;9.05;;;;;;;15.03;50.17;101798.81;5136953;27;20084;-65
2022/05/04 09:52:21;;;;;;;13.25;8.02;;;;;;;15.25;49.95;101815.97;5137095;27;20020;-65
2022/05/04 09:54:46;;;;;;;19.25;9.10;;;;;;;15.26;54.44;101793.97;5136799;27;20123;-68
2022/05/04 09:57:12;;;;;;;13.63;8.70;;;;;;;15.53;55.87;101809.34;5136671;27;20063;-68
2022/05/04 09:59:38;;;;;;;14.60;8.52;;;;;;;15.60;51.98;101796.91;5133282;27;20434;-68
2022/05/04 10:02:07;;;;;;;14.13;8.88;;;;;;;15.64;54.70;101804.75;5136268;27;20039;-65
2022/05/04 10:04:34;;;;;;;18.20;8.60;;;;;;;15.57;49.66;101804.91;5136544;27;20058;-65
2022/05/04 10:07:00;;;;;;;13.80;8.20;;;;;;;15.46;51.01;101799.78;5136757;27;20061;-65
2022/05/04 10:09:26;;;;;;;16.35;8.38;;;;;;;15.39;51.37;101799.94;5136532;27;20039;-68
2022/05/04 10:11:57;;;;;;;13.88;8.02;;;;;;;15.40;50.23;101805.19;5136342;27;20499;-65
2022/05/04 10:14:24;;;;;;;12.15;7.72;;;;;;;15.43;49.07;101799.81;5136429;27;20027;-67
2022/05/04 10:16:56;;;;;;;17.23;8.38;;;;;;;15.53;49.54;101790.88;5136381;27;20031;-67
2022/05/04 10:19:26;;;;;;;16.02;8.75;;;;;;;15.64;52.24;101788.91;5130386;27;20042;-67
2022/05/04 10:21:55;;;;;;;18.65;8.50;;;;;;;15.73;48.74;101792.28;5108535;27;20361;-67
2022/05/04 10:24:22;;;;;;;15.13;7.80;;;;;;;15.83;50.50;101791.19;5131436;27;20035;-67
2022/05/04 10:26:48;;;;;;;12.52;8.10;;;;;;;15.91;47.99;101784.88;5102234;27;20044;-67
2022/05/04 10:32:32;;;;;;;16.58;8.00;;;;;;;15.87;48.96;101792.88;5108413;27;20952;-67
2022/05/04 10:35:26;;;;;;;13.82;7.70;;;;;;;15.97;48.65;101790.00;5112906;27;20015;-65
2022/05/04 10:37:58;;;;;;;14.48;7.78;;;;;;;16.04;47.68;101784.63;5115869;27;20038;-68
2022/05/04 10:40:30;;;;;;;11.40;7.55;;;;;;;16.10;46.76;101782.72;5099307;28;20039;-66
2022/05/04 10:42:56;;;;;;;13.95;7.72;;;;;;;16.24;45.59;101779.78;5094946;28;20073;-67
2022/05/04 10:45:33;;;;;;;11.77;7.32;;;;;;;16.34;47.08;101792.75;5098325;28;20031;-67
2022/05/04 10:48:20;;;;;;;13.88;7.40;;;;;;;16.46;46.62;101780.16;5135593;27;20122;-65
2022/05/04 10:51:02;;;;;;;13.77;8.20;;;;;;;16.59;46.55;101790.44;5135955;27;20438;-67
2022/05/04 10:53:28;;;;;;;12.73;7.32;;;;;;;16.77;45.42;101785.66;5117472;28;20031;-67
2022/05/04 10:56:00;;;;;;;11.93;7.18;;;;;;;16.94;44.96;101776.41;5134861;27;20392;-67
2022/05/04 10:58:50;;;;;;;14.32;8.00;;;;;;;16.96;45.62;101771.94;5135932;28;20034;-67
2022/05/04 11:01:17;;;;;;;13.35;8.43;;;;;;;16.96;45.21;101776.38;5110415;28;20081;-69
2022/05/04 11:04:04;;;;;;;14.43;8.38;;;;;;;17.04;46.12;101763.81;5094819;28;20444;-65
2022/05/04 11:06:33;;;;;;;13.80;8.15;;;;;;;17.23;45.23;101761.56;5094779;28;20435;-66
2022/05/04 11:09:05;;;;;;;14.05;7.90;;;;;;;17.19;43.31;101763.41;5094901;28;20050;-67
2022/05/04 11:11:30;;;;;;;13.75;7.78;;;;;;;17.22;42.71;101765.97;5094883;28;20119;-67
2022/05/04 11:13:56;;;;;;;10.35;7.55;;;;;;;17.27;45.69;101757.94;5094790;28;20063;-68
2022/05/04 11:16:24;;;;;;;14.90;7.97;;;;;;;17.45;42.90;101767.16;5094771;28;20036;-67
2022/05/04 11:18:49;;;;;;;13.52;7.70;;;;;;;17.49;42.94;101758.22;5094087;28;20047;-67
2022/05/04 11:21:16;;;;;;;15.48;8.13;;;;;;;17.38;42.55;101767.31;5107335;28;20031;-68
2022/05/04 11:23:51;;;;;;;12.30;8.30;;;;;;;17.37;43.00;101756.75;5115003;28;20420;-67
2022/05/04 11:26:22;;;;;;;16.10;7.13;;;;;;;17.55;43.92;101758.91;5114860;28;20048;-68
2022/05/04 11:28:50;;;;;;;16.15;8.88;;;;;;;17.48;42.36;101765.28;5114848;28;20102;-67
2022/05/04 11:31:16;;;;;;;15.95;8.25;;;;;;;17.37;41.70;101759.41;5098010;28;20036;-68
2022/05/04 11:33:43;;;;;;;13.15;8.35;;;;;;;17.34;44.07;101762.13;5094868;28;20458;-67
2022/05/04 11:36:09;;;;;;;18.88;8.63;;;;;;;17.36;43.23;101757.66;5094701;28;20490;-68
2022/05/04 11:38:35;;;;;;;15.40;8.32;;;;;;;17.51;42.85;101754.59;5094669;28;20031;-67
2022/05/04 11:41:01;;;;;;;16.35;8.20;;;;;;;17.74;43.49;101752.22;5094602;28;20111;-62
2022/05/04 11:43:35;;;;;;;14.10;7.93;;;;;;;17.86;42.20;101737.75;5094429;28;20040;-65
2022/05/04 11:46:06;;;;;;;16.35;8.38;;;;;;;17.88;41.48;101735.91;5094272;28;20043;-67
2022/05/04 11:48:32;;;;;;;12.27;7.68;;;;;;;17.77;42.28;101745.09;5095080;28;20355;-66
2022/05/04 11:50:57;;;;;;;15.90;8.10;;;;;;;17.81;42.86;101736.16;5094183;28;20024;-66
2022/05/04 11:53:23;;;;;;;12.32;7.65;;;;;;;17.91;42.74;101733.19;5094487;28;20028;-66
2022/05/04 11:55:48;;;;;;;14.75;7.78;;;;;;;18.09;42.30;101731.78;5095241;28;20024;-69
2022/05/04 11:58:16;;;;;;;13.38;7.82;;;;;;;18.13;41.87;101725.47;5097882;28;20066;-67